sensor_id;sensor_type;location;lat;lon;timestamp;P1;durP1;ratioP1;P2;durP2;ratioP2
43626;SDS011;29217;52.586;13.442;2022-07-15T00:00:24;3.10;;;1.13;;
43626;SDS011;29217;52.586;13.442;2022-07-15T00:02:49;2.53;;;1.10;;
43626;SDS011;29217;52.586;13.442;2022-07-15T00:05:15;2.38;;;1.15;;
43626;SDS011;29217;52.586;13.442;2022-07-15T00:07:41;2.33;;;1.10;;
43626;SDS011;29217;52.586;13.442;2022-07-15T00:10:06;3.72;;;1.15;;
43626;SDS011;29217;52.586;13.442;2022-07-15T00:12:47;2.25;;;1.08;;
43626;SDS011;29217;52.586;13.442;2022-07-15T00:15:14;2.20;;;1.02;;
43626;SDS011;29217;52.586;13.442;2022-07-15T00:17:40;2.53;;;0.93;;
43626;SDS011;29217;52.586;13.442;2022-07-15T00:20:07;2.00;;;1.00;;
43626;SDS011;29217;52.586;13.442;2022-07-15T00:22:35;2.42;;;1.15;;
43626;SDS011;29217;52.586;13.442;2022-07-15T00:25:00;8.68;;;1.27;;
43626;SDS011;29217;52.586;13.442;2022-07-15T00:27:26;2.67;;;0.82;;
43626;SDS011;29217;52.586;13.442;2022-07-15T00:29:51;5.13;;;1.10;;
43626;SDS011;29217;52.586;13.442;2022-07-15T00:32:17;2.33;;;0.90;;
43626;SDS011;29217;52.586;13.442;2022-07-15T00:34:42;4.75;;;1.20;;
43626;SDS011;29217;52.586;13.442;2022-07-15T00:37:08;4.63;;;1.08;;
43626;SDS011;29217;52.586;13.442;2022-07-15T00:39:34;3.63;;;1.10;;
43626;SDS011;29217;52.586;13.442;2022-07-15T00:41:59;4.60;;;1.13;;
43626;SDS011;29217;52.586;13.442;2022-07-15T00:44:25;3.17;;;1.08;;
43626;SDS011;29217;52.586;13.442;2022-07-15T00:46:51;6.82;;;1.10;;
43626;SDS011;29217;52.586;13.442;2022-07-15T00:49:18;3.17;;;1.10;;
43626;SDS011;29217;52.586;13.442;2022-07-15T00:51:46;2.45;;;1.10;;
43626;SDS011;29217;52.586;13.442;2022-07-15T00:54:15;5.35;;;1.20;;
43626;SDS011;29217;52.586;13.442;2022-07-15T00:56:48;6.18;;;1.48;;
43626;SDS011;29217;52.586;13.442;2022-07-15T00:59:16;3.38;;;1.27;;
43626;SDS011;29217;52.586;13.442;2022-07-15T01:01:47;4.10;;;1.40;;
43626;SDS011;29217;52.586;13.442;2022-07-15T01:04:13;3.75;;;1.30;;
43626;SDS011;29217;52.586;13.442;2022-07-15T01:06:41;3.53;;;1.42;;
43626;SDS011;29217;52.586;13.442;2022-07-15T01:09:07;2.10;;;0.93;;
43626;SDS011;29217;52.586;13.442;2022-07-15T01:11:33;6.15;;;1.10;;
43626;SDS011;29217;52.586;13.442;2022-07-15T01:14:00;2.45;;;1.10;;
43626;SDS011;29217;52.586;13.442;2022-07-15T01:16:26;2.92;;;1.27;;
43626;SDS011;29217;52.586;13.442;2022-07-15T01:18:52;2.03;;;1.15;;
43626;SDS011;29217;52.586;13.442;2022-07-15T01:21:18;2.40;;;1.20;;
43626;SDS011;29217;52.586;13.442;2022-07-15T01:23:44;5.95;;;1.40;;
43626;SDS011;29217;52.586;13.442;2022-07-15T01:26:10;2.70;;;1.20;;
43626;SDS011;29217;52.586;13.442;2022-07-15T01:28:37;1.95;;;1.10;;
43626;SDS011;29217;52.586;13.442;2022-07-15T01:31:03;4.20;;;1.02;;
43626;SDS011;29217;52.586;13.442;2022-07-15T01:33:29;4.03;;;1.08;;
43626;SDS011;29217;52.586;13.442;2022-07-15T01:35:56;4.47;;;1.30;;
43626;SDS011;29217;52.586;13.442;2022-07-15T01:38:23;4.18;;;1.33;;
43626;SDS011;29217;52.586;13.442;2022-07-15T01:40:49;4.00;;;1.58;;
43626;SDS011;29217;52.586;13.442;2022-07-15T01:43:14;2.67;;;1.20;;
43626;SDS011;29217;52.586;13.442;2022-07-15T01:45:43;3.10;;;1.15;;
43626;SDS011;29217;52.586;13.442;2022-07-15T01:48:10;3.00;;;1.40;;
43626;SDS011;29217;52.586;13.442;2022-07-15T01:50:57;8.38;;;1.50;;
43626;SDS011;29217;52.586;13.442;2022-07-15T01:53:24;4.85;;;1.40;;
43626;SDS011;29217;52.586;13.442;2022-07-15T01:55:50;3.13;;;1.20;;
43626;SDS011;29217;52.586;13.442;2022-07-15T01:58:16;3.10;;;1.20;;
43626;SDS011;29217;52.586;13.442;2022-07-15T02:00:42;4.53;;;1.42;;
43626;SDS011;29217;52.586;13.442;2022-07-15T02:03:08;2.08;;;1.20;;
43626;SDS011;29217;52.586;13.442;2022-07-15T02:05:34;5.18;;;1.30;;
43626;SDS011;29217;52.586;13.442;2022-07-15T02:08:00;6.78;;;1.30;;
43626;SDS011;29217;52.586;13.442;2022-07-15T02:10:26;4.15;;;1.60;;
43626;SDS011;29217;52.586;13.442;2022-07-15T02:13:04;2.42;;;1.15;;
43626;SDS011;29217;52.586;13.442;2022-07-15T02:15:30;5.28;;;1.45;;
43626;SDS011;29217;52.586;13.442;2022-07-15T02:17:56;3.58;;;1.20;;
43626;SDS011;29217;52.586;13.442;2022-07-15T02:20:21;3.65;;;1.20;;
43626;SDS011;29217;52.586;13.442;2022-07-15T02:22:47;3.55;;;1.42;;
43626;SDS011;29217;52.586;13.442;2022-07-15T02:25:12;7.82;;;1.58;;
43626;SDS011;29217;52.586;13.442;2022-07-15T02:27:38;2.33;;;1.30;;
43626;SDS011;29217;52.586;13.442;2022-07-15T02:30:04;4.93;;;1.25;;
43626;SDS011;29217;52.586;13.442;2022-07-15T02:32:30;6.68;;;1.42;;
43626;SDS011;29217;52.586;13.442;2022-07-15T02:34:55;4.78;;;1.52;;
43626;SDS011;29217;52.586;13.442;2022-07-15T02:37:21;7.60;;;1.55;;
43626;SDS011;29217;52.586;13.442;2022-07-15T02:39:47;5.57;;;1.70;;
43626;SDS011;29217;52.586;13.442;2022-07-15T02:42:13;4.95;;;1.38;;
43626;SDS011;29217;52.586;13.442;2022-07-15T02:44:38;4.40;;;1.48;;
43626;SDS011;29217;52.586;13.442;2022-07-15T02:47:04;7.22;;;1.30;;
43626;SDS011;29217;52.586;13.442;2022-07-15T02:49:29;6.22;;;1.63;;
43626;SDS011;29217;52.586;13.442;2022-07-15T02:51:55;6.20;;;1.60;;
43626;SDS011;29217;52.586;13.442;2022-07-15T02:54:20;5.72;;;1.60;;
43626;SDS011;29217;52.586;13.442;2022-07-15T02:56:46;7.97;;;1.35;;
43626;SDS011;29217;52.586;13.442;2022-07-15T02:59:11;8.30;;;1.52;;
43626;SDS011;29217;52.586;13.442;2022-07-15T03:01:37;7.10;;;1.60;;
43626;SDS011;29217;52.586;13.442;2022-07-15T03:04:02;4.10;;;1.35;;
43626;SDS011;29217;52.586;13.442;2022-07-15T03:06:29;7.70;;;1.55;;
43626;SDS011;29217;52.586;13.442;2022-07-15T03:08:54;4.85;;;1.80;;
43626;SDS011;29217;52.586;13.442;2022-07-15T03:11:20;4.72;;;1.50;;
43626;SDS011;29217;52.586;13.442;2022-07-15T03:13:46;9.02;;;1.77;;
43626;SDS011;29217;52.586;13.442;2022-07-15T03:16:11;8.15;;;1.73;;
43626;SDS011;29217;52.586;13.442;2022-07-15T03:18:37;9.80;;;1.85;;
43626;SDS011;29217;52.586;13.442;2022-07-15T03:21:02;6.85;;;1.58;;
43626;SDS011;29217;52.586;13.442;2022-07-15T03:23:28;4.32;;;1.42;;
43626;SDS011;29217;52.586;13.442;2022-07-15T03:25:53;5.07;;;1.42;;
43626;SDS011;29217;52.586;13.442;2022-07-15T03:28:19;10.23;;;1.80;;
43626;SDS011;29217;52.586;13.442;2022-07-15T03:30:45;7.00;;;1.83;;
43626;SDS011;29217;52.586;13.442;2022-07-15T03:33:11;5.35;;;1.83;;
43626;SDS011;29217;52.586;13.442;2022-07-15T03:35:36;8.15;;;2.20;;
43626;SDS011;29217;52.586;13.442;2022-07-15T03:38:02;4.57;;;1.20;;
43626;SDS011;29217;52.586;13.442;2022-07-15T03:40:27;4.47;;;2.15;;
43626;SDS011;29217;52.586;13.442;2022-07-15T03:42:53;4.32;;;1.60;;
43626;SDS011;29217;52.586;13.442;2022-07-15T03:45:18;5.68;;;1.70;;
43626;SDS011;29217;52.586;13.442;2022-07-15T03:47:44;4.53;;;1.63;;
43626;SDS011;29217;52.586;13.442;2022-07-15T03:50:09;4.55;;;1.80;;
43626;SDS011;29217;52.586;13.442;2022-07-15T03:52:35;9.25;;;1.65;;
43626;SDS011;29217;52.586;13.442;2022-07-15T03:55:00;4.97;;;2.10;;
43626;SDS011;29217;52.586;13.442;2022-07-15T03:57:26;4.80;;;1.88;;
43626;SDS011;29217;52.586;13.442;2022-07-15T03:59:52;15.07;;;1.88;;
43626;SDS011;29217;52.586;13.442;2022-07-15T04:02:17;7.00;;;1.90;;
43626;SDS011;29217;52.586;13.442;2022-07-15T04:04:44;12.93;;;1.50;;
43626;SDS011;29217;52.586;13.442;2022-07-15T04:07:09;6.20;;;1.77;;
43626;SDS011;29217;52.586;13.442;2022-07-15T04:09:35;7.07;;;1.63;;
43626;SDS011;29217;52.586;13.442;2022-07-15T04:12:00;10.48;;;2.20;;
43626;SDS011;29217;52.586;13.442;2022-07-15T04:14:26;10.30;;;1.85;;
43626;SDS011;29217;52.586;13.442;2022-07-15T04:16:51;7.22;;;1.70;;
43626;SDS011;29217;52.586;13.442;2022-07-15T04:19:17;8.93;;;1.77;;
43626;SDS011;29217;52.586;13.442;2022-07-15T04:21:42;7.28;;;1.60;;
43626;SDS011;29217;52.586;13.442;2022-07-15T04:24:08;7.85;;;1.73;;
43626;SDS011;29217;52.586;13.442;2022-07-15T04:26:33;5.95;;;1.92;;
43626;SDS011;29217;52.586;13.442;2022-07-15T04:28:59;11.50;;;1.73;;
43626;SDS011;29217;52.586;13.442;2022-07-15T04:31:25;5.00;;;1.88;;
43626;SDS011;29217;52.586;13.442;2022-07-15T04:33:50;7.28;;;1.55;;
43626;SDS011;29217;52.586;13.442;2022-07-15T04:36:16;2.60;;;1.30;;
43626;SDS011;29217;52.586;13.442;2022-07-15T04:38:41;8.75;;;1.65;;
43626;SDS011;29217;52.586;13.442;2022-07-15T04:41:07;8.15;;;1.58;;
43626;SDS011;29217;52.586;13.442;2022-07-15T04:43:32;7.70;;;1.67;;
43626;SDS011;29217;52.586;13.442;2022-07-15T04:45:58;8.73;;;1.67;;
43626;SDS011;29217;52.586;13.442;2022-07-15T04:48:23;7.68;;;1.50;;
43626;SDS011;29217;52.586;13.442;2022-07-15T04:51:08;7.65;;;1.90;;
43626;SDS011;29217;52.586;13.442;2022-07-15T04:53:33;3.70;;;1.83;;
43626;SDS011;29217;52.586;13.442;2022-07-15T04:55:59;4.65;;;1.30;;
43626;SDS011;29217;52.586;13.442;2022-07-15T04:58:25;4.88;;;1.50;;
43626;SDS011;29217;52.586;13.442;2022-07-15T05:00:50;6.45;;;1.95;;
43626;SDS011;29217;52.586;13.442;2022-07-15T05:03:16;8.40;;;1.63;;
43626;SDS011;29217;52.586;13.442;2022-07-15T05:05:41;9.10;;;1.80;;
43626;SDS011;29217;52.586;13.442;2022-07-15T05:08:07;6.57;;;1.58;;
43626;SDS011;29217;52.586;13.442;2022-07-15T05:10:32;5.88;;;1.45;;
43626;SDS011;29217;52.586;13.442;2022-07-15T05:12:58;11.27;;;1.38;;
43626;SDS011;29217;52.586;13.442;2022-07-15T05:15:24;5.88;;;1.42;;
43626;SDS011;29217;52.586;13.442;2022-07-15T05:17:50;6.25;;;1.60;;
43626;SDS011;29217;52.586;13.442;2022-07-15T05:20:15;6.00;;;1.65;;
43626;SDS011;29217;52.586;13.442;2022-07-15T05:22:41;5.43;;;1.40;;
43626;SDS011;29217;52.586;13.442;2022-07-15T05:25:07;5.03;;;1.65;;
43626;SDS011;29217;52.586;13.442;2022-07-15T05:27:33;3.70;;;1.20;;
43626;SDS011;29217;52.586;13.442;2022-07-15T05:29:58;5.10;;;1.35;;
43626;SDS011;29217;52.586;13.442;2022-07-15T05:32:24;8.77;;;1.90;;
43626;SDS011;29217;52.586;13.442;2022-07-15T05:34:49;9.50;;;1.27;;
43626;SDS011;29217;52.586;13.442;2022-07-15T05:37:15;7.65;;;1.67;;
43626;SDS011;29217;52.586;13.442;2022-07-15T05:39:40;4.72;;;1.45;;
43626;SDS011;29217;52.586;13.442;2022-07-15T05:42:21;9.73;;;1.70;;
43626;SDS011;29217;52.586;13.442;2022-07-15T05:44:48;5.00;;;1.58;;
43626;SDS011;29217;52.586;13.442;2022-07-15T05:47:13;5.00;;;1.50;;
43626;SDS011;29217;52.586;13.442;2022-07-15T05:49:39;6.47;;;1.60;;
43626;SDS011;29217;52.586;13.442;2022-07-15T05:52:06;6.50;;;1.50;;
43626;SDS011;29217;52.586;13.442;2022-07-15T05:54:32;5.93;;;1.52;;
43626;SDS011;29217;52.586;13.442;2022-07-15T05:56:58;5.50;;;1.70;;
43626;SDS011;29217;52.586;13.442;2022-07-15T05:59:23;7.60;;;1.30;;
43626;SDS011;29217;52.586;13.442;2022-07-15T06:01:49;13.77;;;1.77;;
43626;SDS011;29217;52.586;13.442;2022-07-15T06:04:15;4.45;;;1.20;;
43626;SDS011;29217;52.586;13.442;2022-07-15T06:06:40;6.13;;;1.48;;
43626;SDS011;29217;52.586;13.442;2022-07-15T06:09:06;4.65;;;1.52;;
43626;SDS011;29217;52.586;13.442;2022-07-15T06:11:32;2.53;;;1.00;;
43626;SDS011;29217;52.586;13.442;2022-07-15T06:13:59;8.45;;;1.55;;
43626;SDS011;29217;52.586;13.442;2022-07-15T06:16:24;6.88;;;1.63;;
43626;SDS011;29217;52.586;13.442;2022-07-15T06:18:50;4.82;;;1.10;;
43626;SDS011;29217;52.586;13.442;2022-07-15T06:21:16;7.68;;;1.35;;
43626;SDS011;29217;52.586;13.442;2022-07-15T06:23:42;3.47;;;1.00;;
43626;SDS011;29217;52.586;13.442;2022-07-15T06:26:07;4.63;;;1.60;;
43626;SDS011;29217;52.586;13.442;2022-07-15T06:28:34;3.13;;;1.40;;
43626;SDS011;29217;52.586;13.442;2022-07-15T06:31:00;3.72;;;1.30;;
43626;SDS011;29217;52.586;13.442;2022-07-15T06:33:26;8.85;;;1.48;;
43626;SDS011;29217;52.586;13.442;2022-07-15T06:35:52;5.90;;;1.10;;
43626;SDS011;29217;52.586;13.442;2022-07-15T06:38:18;5.15;;;1.10;;
43626;SDS011;29217;52.586;13.442;2022-07-15T06:40:44;3.13;;;1.20;;
43626;SDS011;29217;52.586;13.442;2022-07-15T06:43:09;5.53;;;1.35;;
43626;SDS011;29217;52.586;13.442;2022-07-15T06:45:36;5.57;;;1.55;;
43626;SDS011;29217;52.586;13.442;2022-07-15T06:48:02;6.35;;;1.20;;
43626;SDS011;29217;52.586;13.442;2022-07-15T06:50:27;11.00;;;1.75;;
43626;SDS011;29217;52.586;13.442;2022-07-15T06:52:53;7.82;;;1.30;;
43626;SDS011;29217;52.586;13.442;2022-07-15T06:55:19;6.50;;;1.30;;
43626;SDS011;29217;52.586;13.442;2022-07-15T06:57:45;4.93;;;1.27;;
43626;SDS011;29217;52.586;13.442;2022-07-15T07:00:11;4.18;;;1.05;;
43626;SDS011;29217;52.586;13.442;2022-07-15T07:02:39;3.58;;;1.33;;
43626;SDS011;29217;52.586;13.442;2022-07-15T07:05:05;4.88;;;1.30;;
43626;SDS011;29217;52.586;13.442;2022-07-15T07:07:30;5.53;;;1.05;;
43626;SDS011;29217;52.586;13.442;2022-07-15T07:09:56;2.22;;;0.90;;
43626;SDS011;29217;52.586;13.442;2022-07-15T07:12:22;5.75;;;1.17;;
43626;SDS011;29217;52.586;13.442;2022-07-15T07:14:47;5.28;;;0.98;;
43626;SDS011;29217;52.586;13.442;2022-07-15T07:17:13;6.10;;;0.98;;
43626;SDS011;29217;52.586;13.442;2022-07-15T07:19:39;4.30;;;0.98;;
43626;SDS011;29217;52.586;13.442;2022-07-15T07:22:04;8.45;;;1.48;;
43626;SDS011;29217;52.586;13.442;2022-07-15T07:24:30;14.10;;;1.27;;
43626;SDS011;29217;52.586;13.442;2022-07-15T07:26:56;7.63;;;1.17;;
43626;SDS011;29217;52.586;13.442;2022-07-15T07:29:22;5.30;;;1.00;;
43626;SDS011;29217;52.586;13.442;2022-07-15T07:31:48;5.65;;;1.00;;
43626;SDS011;29217;52.586;13.442;2022-07-15T07:34:14;5.47;;;1.27;;
43626;SDS011;29217;52.586;13.442;2022-07-15T07:36:40;4.28;;;1.10;;
43626;SDS011;29217;52.586;13.442;2022-07-15T07:39:06;7.05;;;1.15;;
43626;SDS011;29217;52.586;13.442;2022-07-15T07:41:32;3.42;;;0.73;;
43626;SDS011;29217;52.586;13.442;2022-07-15T07:43:57;3.13;;;0.82;;
43626;SDS011;29217;52.586;13.442;2022-07-15T07:46:23;1.70;;;0.80;;
43626;SDS011;29217;52.586;13.442;2022-07-15T07:48:49;4.82;;;1.20;;
43626;SDS011;29217;52.586;13.442;2022-07-15T07:51:14;2.88;;;0.90;;
43626;SDS011;29217;52.586;13.442;2022-07-15T07:53:42;3.97;;;1.08;;
43626;SDS011;29217;52.586;13.442;2022-07-15T07:56:07;3.15;;;0.90;;
43626;SDS011;29217;52.586;13.442;2022-07-15T07:58:33;3.22;;;0.90;;
43626;SDS011;29217;52.586;13.442;2022-07-15T08:00:59;7.50;;;1.10;;
43626;SDS011;29217;52.586;13.442;2022-07-15T08:03:25;2.08;;;0.75;;
43626;SDS011;29217;52.586;13.442;2022-07-15T08:05:52;1.95;;;1.00;;
43626;SDS011;29217;52.586;13.442;2022-07-15T08:08:18;2.40;;;1.08;;
43626;SDS011;29217;52.586;13.442;2022-07-15T08:10:49;5.95;;;1.15;;
43626;SDS011;29217;52.586;13.442;2022-07-15T08:13:17;3.17;;;0.90;;
43626;SDS011;29217;52.586;13.442;2022-07-15T08:15:44;10.15;;;1.38;;
43626;SDS011;29217;52.586;13.442;2022-07-15T08:18:10;3.67;;;0.80;;
43626;SDS011;29217;52.586;13.442;2022-07-15T08:20:37;2.78;;;0.80;;
43626;SDS011;29217;52.586;13.442;2022-07-15T08:23:05;2.70;;;0.98;;
43626;SDS011;29217;52.586;13.442;2022-07-15T08:25:32;3.40;;;1.17;;
43626;SDS011;29217;52.586;13.442;2022-07-15T08:27:59;1.83;;;0.80;;
43626;SDS011;29217;52.586;13.442;2022-07-15T08:30:26;8.82;;;1.10;;
43626;SDS011;29217;52.586;13.442;2022-07-15T08:32:54;2.35;;;0.90;;
43626;SDS011;29217;52.586;13.442;2022-07-15T08:35:21;3.53;;;0.90;;
43626;SDS011;29217;52.586;13.442;2022-07-15T08:37:48;2.95;;;0.73;;
43626;SDS011;29217;52.586;13.442;2022-07-15T08:40:15;5.00;;;1.00;;
43626;SDS011;29217;52.586;13.442;2022-07-15T08:42:41;3.13;;;0.63;;
43626;SDS011;29217;52.586;13.442;2022-07-15T08:45:09;2.85;;;0.75;;
43626;SDS011;29217;52.586;13.442;2022-07-15T08:47:36;5.18;;;0.98;;
43626;SDS011;29217;52.586;13.442;2022-07-15T08:50:03;2.17;;;0.65;;
43626;SDS011;29217;52.586;13.442;2022-07-15T08:52:31;4.13;;;0.82;;
43626;SDS011;29217;52.586;13.442;2022-07-15T08:54:59;2.45;;;0.73;;
43626;SDS011;29217;52.586;13.442;2022-07-15T08:57:25;3.08;;;0.80;;
43626;SDS011;29217;52.586;13.442;2022-07-15T08:59:51;5.18;;;1.05;;
43626;SDS011;29217;52.586;13.442;2022-07-15T09:02:20;3.92;;;0.95;;
43626;SDS011;29217;52.586;13.442;2022-07-15T09:07:53;6.60;;;1.17;;
43626;SDS011;29217;52.586;13.442;2022-07-15T09:10:24;1.83;;;0.60;;
43626;SDS011;29217;52.586;13.442;2022-07-15T09:13:04;8.43;;;1.10;;
43626;SDS011;29217;52.586;13.442;2022-07-15T09:15:34;4.68;;;0.82;;
43626;SDS011;29217;52.586;13.442;2022-07-15T09:20:41;1.92;;;0.70;;
43626;SDS011;29217;52.586;13.442;2022-07-15T09:23:08;2.33;;;0.80;;
43626;SDS011;29217;52.586;13.442;2022-07-15T09:25:36;4.47;;;1.00;;
43626;SDS011;29217;52.586;13.442;2022-07-15T09:28:03;4.68;;;0.93;;
43626;SDS011;29217;52.586;13.442;2022-07-15T09:30:31;2.53;;;0.80;;
43626;SDS011;29217;52.586;13.442;2022-07-15T09:33:20;7.25;;;1.17;;
43626;SDS011;29217;52.586;13.442;2022-07-15T09:36:06;3.08;;;0.70;;
43626;SDS011;29217;52.586;13.442;2022-07-15T09:41:30;4.70;;;0.80;;
43626;SDS011;29217;52.586;13.442;2022-07-15T09:44:04;5.07;;;0.98;;
43626;SDS011;29217;52.586;13.442;2022-07-15T09:46:50;5.35;;;0.95;;
43626;SDS011;29217;52.586;13.442;2022-07-15T09:51:53;6.85;;;0.90;;
43626;SDS011;29217;52.586;13.442;2022-07-15T09:54:29;5.05;;;1.20;;
43626;SDS011;29217;52.586;13.442;2022-07-15T09:56:57;2.35;;;0.68;;
43626;SDS011;29217;52.586;13.442;2022-07-15T09:59:27;3.03;;;1.10;;
43626;SDS011;29217;52.586;13.442;2022-07-15T10:01:54;4.82;;;0.73;;
43626;SDS011;29217;52.586;13.442;2022-07-15T10:04:21;4.70;;;0.90;;
43626;SDS011;29217;52.586;13.442;2022-07-15T10:06:49;3.38;;;0.90;;
43626;SDS011;29217;52.586;13.442;2022-07-15T10:09:18;2.38;;;0.80;;
43626;SDS011;29217;52.586;13.442;2022-07-15T10:11:52;6.70;;;1.10;;
43626;SDS011;29217;52.586;13.442;2022-07-15T10:19:44;3.90;;;0.93;;
43626;SDS011;29217;52.586;13.442;2022-07-15T10:22:18;1.48;;;0.88;;
43626;SDS011;29217;52.586;13.442;2022-07-15T10:24:49;2.28;;;0.80;;
43626;SDS011;29217;52.586;13.442;2022-07-15T10:27:41;7.40;;;0.70;;
43626;SDS011;29217;52.586;13.442;2022-07-15T10:30:13;3.80;;;0.90;;
43626;SDS011;29217;52.586;13.442;2022-07-15T10:35:36;1.58;;;0.60;;
43626;SDS011;29217;52.586;13.442;2022-07-15T10:40:55;3.38;;;0.80;;
43626;SDS011;29217;52.586;13.442;2022-07-15T10:48:41;4.65;;;0.70;;
43626;SDS011;29217;52.586;13.442;2022-07-15T10:51:11;1.63;;;0.70;;
43626;SDS011;29217;52.586;13.442;2022-07-15T10:53:56;4.63;;;1.15;;
43626;SDS011;29217;52.586;13.442;2022-07-15T10:56:29;1.65;;;0.90;;
43626;SDS011;29217;52.586;13.442;2022-07-15T11:01:40;4.63;;;0.93;;
43626;SDS011;29217;52.586;13.442;2022-07-15T11:04:22;1.90;;;0.70;;
43626;SDS011;29217;52.586;13.442;2022-07-15T11:09:44;1.83;;;0.80;;
43626;SDS011;29217;52.586;13.442;2022-07-15T11:14:54;2.28;;;0.80;;
43626;SDS011;29217;52.586;13.442;2022-07-15T11:20:00;2.90;;;0.60;;
43626;SDS011;29217;52.586;13.442;2022-07-15T11:22:30;1.92;;;0.70;;
43626;SDS011;29217;52.586;13.442;2022-07-15T11:24:56;5.68;;;0.70;;
43626;SDS011;29217;52.586;13.442;2022-07-15T11:27:23;4.97;;;0.63;;
43626;SDS011;29217;52.586;13.442;2022-07-15T11:29:54;7.75;;;0.90;;
43626;SDS011;29217;52.586;13.442;2022-07-15T11:32:24;4.60;;;0.80;;
43626;SDS011;29217;52.586;13.442;2022-07-15T11:34:52;5.07;;;0.90;;
43626;SDS011;29217;52.586;13.442;2022-07-15T11:37:26;2.50;;;1.00;;
43626;SDS011;29217;52.586;13.442;2022-07-15T11:40:13;11.32;;;1.45;;
43626;SDS011;29217;52.586;13.442;2022-07-15T11:43:11;1.65;;;0.70;;
43626;SDS011;29217;52.586;13.442;2022-07-15T11:45:57;2.00;;;0.60;;
43626;SDS011;29217;52.586;13.442;2022-07-15T11:48:23;1.77;;;0.70;;
43626;SDS011;29217;52.586;13.442;2022-07-15T11:50:50;3.50;;;0.90;;
43626;SDS011;29217;52.586;13.442;2022-07-15T11:53:21;7.97;;;0.88;;
43626;SDS011;29217;52.586;13.442;2022-07-15T11:55:59;4.07;;;0.65;;
43626;SDS011;29217;52.586;13.442;2022-07-15T11:58:35;4.35;;;0.90;;
43626;SDS011;29217;52.586;13.442;2022-07-15T12:01:03;2.20;;;0.73;;
43626;SDS011;29217;52.586;13.442;2022-07-15T12:03:42;6.65;;;0.88;;
43626;SDS011;29217;52.586;13.442;2022-07-15T12:08:40;3.47;;;0.70;;
43626;SDS011;29217;52.586;13.442;2022-07-15T12:11:10;10.35;;;0.70;;
43626;SDS011;29217;52.586;13.442;2022-07-15T12:13:59;3.00;;;0.80;;
43626;SDS011;29217;52.586;13.442;2022-07-15T12:18:57;2.53;;;0.70;;
43626;SDS011;29217;52.586;13.442;2022-07-15T12:21:25;4.03;;;0.65;;
43626;SDS011;29217;52.586;13.442;2022-07-15T12:24:08;2.15;;;0.75;;
43626;SDS011;29217;52.586;13.442;2022-07-15T12:26:35;3.95;;;0.77;;
43626;SDS011;29217;52.586;13.442;2022-07-15T12:29:04;3.25;;;0.90;;
43626;SDS011;29217;52.586;13.442;2022-07-15T12:31:31;2.67;;;0.63;;
43626;SDS011;29217;52.586;13.442;2022-07-15T12:33:59;1.15;;;0.50;;
43626;SDS011;29217;52.586;13.442;2022-07-15T12:36:26;0.95;;;0.60;;
43626;SDS011;29217;52.586;13.442;2022-07-15T12:39:13;1.05;;;0.60;;
43626;SDS011;29217;52.586;13.442;2022-07-15T12:41:42;3.70;;;0.70;;
43626;SDS011;29217;52.586;13.442;2022-07-15T12:44:09;2.47;;;0.82;;
43626;SDS011;29217;52.586;13.442;2022-07-15T12:46:55;3.08;;;0.75;;
43626;SDS011;29217;52.586;13.442;2022-07-15T12:52:52;9.80;;;0.98;;
43626;SDS011;29217;52.586;13.442;2022-07-15T12:57:42;2.15;;;0.63;;
43626;SDS011;29217;52.586;13.442;2022-07-15T13:05:27;5.63;;;0.80;;
43626;SDS011;29217;52.586;13.442;2022-07-15T13:07:54;2.95;;;0.73;;
43626;SDS011;29217;52.586;13.442;2022-07-15T13:10:20;6.70;;;0.88;;
43626;SDS011;29217;52.586;13.442;2022-07-15T13:12:45;3.78;;;0.80;;
43626;SDS011;29217;52.586;13.442;2022-07-15T13:15:11;2.35;;;0.77;;
43626;SDS011;29217;52.586;13.442;2022-07-15T13:17:36;2.80;;;0.80;;
43626;SDS011;29217;52.586;13.442;2022-07-15T13:20:02;2.20;;;0.70;;
43626;SDS011;29217;52.586;13.442;2022-07-15T13:22:30;2.22;;;0.60;;
43626;SDS011;29217;52.586;13.442;2022-07-15T13:24:57;5.93;;;0.88;;
43626;SDS011;29217;52.586;13.442;2022-07-15T13:27:23;0.85;;;0.60;;
43626;SDS011;29217;52.586;13.442;2022-07-15T13:29:49;1.92;;;0.70;;
43626;SDS011;29217;52.586;13.442;2022-07-15T13:32:14;3.58;;;0.80;;
43626;SDS011;29217;52.586;13.442;2022-07-15T13:34:40;5.70;;;0.88;;
43626;SDS011;29217;52.586;13.442;2022-07-15T13:37:06;2.17;;;0.80;;
43626;SDS011;29217;52.586;13.442;2022-07-15T13:39:32;5.63;;;0.90;;
43626;SDS011;29217;52.586;13.442;2022-07-15T13:41:57;1.83;;;0.60;;
43626;SDS011;29217;52.586;13.442;2022-07-15T13:44:23;3.47;;;0.75;;
43626;SDS011;29217;52.586;13.442;2022-07-15T13:46:48;2.90;;;0.60;;
43626;SDS011;29217;52.586;13.442;2022-07-15T13:49:14;2.08;;;0.65;;
43626;SDS011;29217;52.586;13.442;2022-07-15T13:51:39;3.28;;;0.70;;
43626;SDS011;29217;52.586;13.442;2022-07-15T13:54:06;1.52;;;0.60;;
43626;SDS011;29217;52.586;13.442;2022-07-15T13:56:34;1.95;;;0.80;;
43626;SDS011;29217;52.586;13.442;2022-07-15T13:59:00;7.50;;;0.90;;
43626;SDS011;29217;52.586;13.442;2022-07-15T14:01:27;2.97;;;0.90;;
43626;SDS011;29217;52.586;13.442;2022-07-15T14:03:53;4.85;;;0.90;;
43626;SDS011;29217;52.586;13.442;2022-07-15T14:06:19;2.00;;;0.73;;
43626;SDS011;29217;52.586;13.442;2022-07-15T14:08:45;5.57;;;1.00;;
43626;SDS011;29217;52.586;13.442;2022-07-15T14:11:10;7.30;;;1.00;;
43626;SDS011;29217;52.586;13.442;2022-07-15T14:13:36;3.35;;;0.90;;
43626;SDS011;29217;52.586;13.442;2022-07-15T14:16:01;4.35;;;0.85;;
43626;SDS011;29217;52.586;13.442;2022-07-15T14:18:27;4.72;;;0.75;;
43626;SDS011;29217;52.586;13.442;2022-07-15T14:21:08;5.28;;;0.80;;
43626;SDS011;29217;52.586;13.442;2022-07-15T14:23:38;2.03;;;0.70;;
43626;SDS011;29217;52.586;13.442;2022-07-15T14:26:03;2.85;;;0.90;;
43626;SDS011;29217;52.586;13.442;2022-07-15T14:28:30;4.45;;;0.90;;
43626;SDS011;29217;52.586;13.442;2022-07-15T14:30:56;3.22;;;0.80;;
43626;SDS011;29217;52.586;13.442;2022-07-15T14:33:22;2.50;;;0.90;;
43626;SDS011;29217;52.586;13.442;2022-07-15T14:35:48;3.45;;;1.10;;
43626;SDS011;29217;52.586;13.442;2022-07-15T14:38:13;5.55;;;1.15;;
43626;SDS011;29217;52.586;13.442;2022-07-15T14:40:39;4.85;;;1.42;;
43626;SDS011;29217;52.586;13.442;2022-07-15T14:43:04;6.15;;;1.00;;
43626;SDS011;29217;52.586;13.442;2022-07-15T14:45:30;5.93;;;1.05;;
43626;SDS011;29217;52.586;13.442;2022-07-15T14:47:55;4.80;;;1.13;;
43626;SDS011;29217;52.586;13.442;2022-07-15T14:50:21;3.22;;;0.95;;
43626;SDS011;29217;52.586;13.442;2022-07-15T14:52:47;5.85;;;1.13;;
43626;SDS011;29217;52.586;13.442;2022-07-15T14:55:13;7.15;;;1.02;;
43626;SDS011;29217;52.586;13.442;2022-07-15T14:57:38;7.07;;;0.82;;
43626;SDS011;29217;52.586;13.442;2022-07-15T15:00:04;5.75;;;1.30;;
43626;SDS011;29217;52.586;13.442;2022-07-15T15:02:31;10.05;;;1.17;;
43626;SDS011;29217;52.586;13.442;2022-07-15T15:04:56;16.25;;;1.90;;
43626;SDS011;29217;52.586;13.442;2022-07-15T15:07:22;2.50;;;0.90;;
43626;SDS011;29217;52.586;13.442;2022-07-15T15:09:47;4.32;;;0.90;;
43626;SDS011;29217;52.586;13.442;2022-07-15T15:12:13;2.25;;;0.88;;
43626;SDS011;29217;52.586;13.442;2022-07-15T15:14:38;2.45;;;1.10;;
43626;SDS011;29217;52.586;13.442;2022-07-15T15:17:04;5.55;;;1.10;;
43626;SDS011;29217;52.586;13.442;2022-07-15T15:19:30;3.72;;;1.00;;
43626;SDS011;29217;52.586;13.442;2022-07-15T15:21:56;3.00;;;0.90;;
43626;SDS011;29217;52.586;13.442;2022-07-15T15:24:22;7.03;;;0.93;;
43626;SDS011;29217;52.586;13.442;2022-07-15T15:26:48;3.85;;;1.00;;
43626;SDS011;29217;52.586;13.442;2022-07-15T15:29:15;2.95;;;0.90;;